Time;durP1;ratioP1;P1;durP2;ratioP2;P2;SDS_P1;SDS_P2;PMS_P1;PMS_P2;Temp;Humidity;BMP_temperature;BMP_pressure;BME280_temperature;BME280_humidity;BME280_pressure;Samples;Min_cycle;Max_cycle;Signal;HPM_P1;HPM_P2
2023/01/13 00:00:00;;;;;;;19.17;6.88;;;9.80;99.90;;;;;;5077602;28;20041;-73
2023/01/13 00:02:26;;;;;;;11.25;6.25;;;9.70;99.90;;;;;;5077763;28;20140;-72
2023/01/13 00:04:52;;;;;;;15.25;5.05;;;9.70;99.90;;;;;;5073631;28;20489;-73
2023/01/13 00:07:17;;;;;;;17.95;5.28;;;9.60;99.90;;;;;;5073705;28;20040;-73
2023/01/13 00:09:43;;;;;;;16.48;4.57;;;9.60;99.90;;;;;;5074289;28;20051;-73
2023/01/13 00:12:09;;;;;;;13.18;4.50;;;9.50;99.90;;;;;;5073669;28;20493;-73
2023/01/13 00:14:35;;;;;;;16.77;5.95;;;9.50;99.90;;;;;;5074115;28;20544;-73
2023/01/13 00:17:03;;;;;;;19.23;5.28;;;9.40;99.90;;;;;;5073967;28;20037;-72
2023/01/13 00:19:29;;;;;;;24.08;6.05;;;9.40;99.90;;;;;;5074374;28;20040;-72
2023/01/13 00:21:54;;;;;;;21.27;5.22;;;9.40;99.90;;;;;;5087619;28;20040;-69
2023/01/13 00:24:20;;;;;;;14.98;4.85;;;9.40;99.90;;;;;;5082129;28;20063;-72
2023/01/13 00:26:46;;;;;;;18.55;5.65;;;9.30;99.90;;;;;;5074267;28;20037;-72
2023/01/13 00:29:12;;;;;;;17.75;5.60;;;9.40;99.90;;;;;;5073382;28;20469;-73
2023/01/13 00:31:37;;;;;;;14.60;5.55;;;9.30;99.90;;;;;;5073366;28;20048;-72
2023/01/13 00:34:03;;;;;;;19.65;6.95;;;9.30;99.90;;;;;;5073391;28;20039;-73
2023/01/13 00:36:29;;;;;;;19.60;6.40;;;9.30;99.90;;;;;;5055748;28;20111;-73
2023/01/13 00:38:55;;;;;;;25.77;6.97;;;9.30;99.90;;;;;;5074302;28;20142;-73
2023/01/13 00:41:23;;;;;;;24.55;6.22;;;9.20;99.90;;;;;;5055909;28;20461;-73
2023/01/13 00:43:49;;;;;;;13.65;6.47;;;9.20;99.90;;;;;;5073948;28;20036;-73
2023/01/13 00:46:20;;;;;;;16.60;6.40;;;9.10;99.90;;;;;;5072950;28;20381;-72
2023/01/13 00:48:47;;;;;;;14.95;5.95;;;9.10;99.90;;;;;;5074948;28;20048;-73
2023/01/13 00:51:16;;;;;;;15.68;5.78;;;9.10;99.90;;;;;;5076873;28;20423;-74
2023/01/13 00:53:47;;;;;;;23.63;6.35;;;9.10;99.90;;;;;;5077000;28;20067;-74
2023/01/13 00:56:16;;;;;;;21.75;6.55;;;9.00;99.90;;;;;;5076853;28;20039;-74
2023/01/13 00:58:43;;;;;;;19.67;7.22;;;9.00;99.90;;;;;;5076888;28;20106;-74
2023/01/13 01:01:19;;;;;;;16.23;5.32;;;9.00;99.90;;;;;;5076800;28;20040;-73
2023/01/13 01:03:47;;;;;;;20.33;6.47;;;9.00;99.90;;;;;;5076821;28;20078;-74
2023/01/13 01:06:19;;;;;;;13.10;5.82;;;8.90;99.90;;;;;;5076761;28;20033;-74
2023/01/13 01:08:44;;;;;;;23.40;6.50;;;8.90;99.90;;;;;;5076586;28;20051;-74
2023/01/13 01:11:13;;;;;;;20.35;6.65;;;8.90;99.90;;;;;;5076700;28;20040;-73
2023/01/13 01:13:39;;;;;;;18.23;6.35;;;8.90;99.90;;;;;;5077059;28;20033;-74
2023/01/13 01:16:07;;;;;;;20.55;8.27;;;8.90;99.90;;;;;;5076382;28;20424;-74
2023/01/13 01:18:34;;;;;;;19.98;6.63;;;8.90;99.90;;;;;;5076400;28;20048;-74
2023/01/13 01:21:01;;;;;;;28.58;7.50;;;8.80;99.90;;;;;;5076381;28;20051;-74
2023/01/13 01:23:31;;;;;;;29.48;6.93;;;8.80;99.90;;;;;;5076170;28;20393;-74
2023/01/13 01:26:04;;;;;;;20.42;7.18;;;8.80;99.90;;;;;;5059049;28;20346;-74
2023/01/13 01:28:29;;;;;;;20.60;6.65;;;8.70;99.90;;;;;;5076178;28;20061;-74
2023/01/13 01:30:57;;;;;;;27.00;7.43;;;8.70;99.90;;;;;;5076228;28;20426;-74
2023/01/13 01:33:23;;;;;;;16.80;7.18;;;8.70;99.90;;;;;;5076101;28;20045;-74
2023/01/13 01:35:49;;;;;;;17.00;6.60;;;8.70;99.90;;;;;;5076581;28;20040;-74
2023/01/13 01:38:14;;;;;;;23.92;7.20;;;8.70;99.90;;;;;;5075754;28;20048;-74
2023/01/13 01:40:40;;;;;;;27.67;7.78;;;8.70;99.90;;;;;;5058652;28;20052;-74
2023/01/13 01:46:02;;;;;;;17.08;8.25;;;8.60;99.90;;;;;;5075977;28;20589;-74
2023/01/13 01:48:33;;;;;;;20.05;8.52;;;8.70;99.90;;;;;;5076030;28;20045;-74
2023/01/13 01:51:00;;;;;;;20.63;6.97;;;8.60;99.90;;;;;;5075971;28;20051;-74
2023/01/13 01:53:28;;;;;;;13.15;7.03;;;8.60;99.90;;;;;;5075800;28;20043;-73
2023/01/13 01:55:56;;;;;;;16.80;6.97;;;8.60;99.90;;;;;;5075772;28;20051;-74
2023/01/13 01:58:40;;;;;;;21.30;7.00;;;8.50;99.90;;;;;;5075790;28;20044;-73
2023/01/13 02:01:07;;;;;;;17.40;6.70;;;8.50;99.90;;;;;;5042283;28;20468;-73
2023/01/13 02:03:36;;;;;;;27.10;6.07;;;8.50;99.90;;;;;;5076059;28;20095;-74
2023/01/13 02:06:02;;;;;;;20.42;7.15;;;8.50;99.90;;;;;;5075717;28;20416;-73
2023/01/13 02:08:28;;;;;;;16.98;7.35;;;8.50;99.90;;;;;;5058604;28;20048;-74
2023/01/13 02:10:54;;;;;;;17.75;5.95;;;8.50;99.90;;;;;;5075651;28;20051;-73
2023/01/13 02:13:21;;;;;;;17.40;6.40;;;8.60;99.90;;;;;;5041173;28;20040;-73
2023/01/13 02:15:59;;;;;;;23.23;6.10;;;8.50;99.90;;;;;;5075912;28;20094;-73
2023/01/13 02:18:37;;;;;;;24.88;8.30;;;8.50;99.90;;;;;;5076115;28;20071;-73
2023/01/13 02:21:32;;;;;;;18.52;5.93;;;8.50;99.90;;;;;;5075343;28;20040;-73
2023/01/13 02:27:21;;;;;;;18.90;4.88;;;8.60;99.90;;;;;;5075610;28;20463;-72
2023/01/13 02:33:16;;;;;;;14.18;5.88;;;8.60;99.90;;;;;;5075372;28;20048;-73
2023/01/13 02:36:11;;;;;;;16.85;5.18;;;8.70;99.90;;;;;;5075939;28;20098;-73
2023/01/13 02:38:51;;;;;;;13.82;6.32;;;8.60;99.90;;;;;;5057293;28;20135;-73
2023/01/13 02:44:23;;;;;;;23.10;7.05;;;8.60;99.90;;;;;;5058016;28;20092;-73
2023/01/13 02:47:00;;;;;;;22.23;7.67;;;8.70;99.90;;;;;;5075867;28;20040;-74
2023/01/13 02:49:43;;;;;;;19.38;6.68;;;8.60;99.90;;;;;;5074788;28;20282;-74
2023/01/13 02:52:34;;;;;;;15.85;5.28;;;8.70;99.90;;;;;;5074741;28;20101;-74
2023/01/13 02:55:07;;;;;;;22.23;8.52;;;8.70;99.90;;;;;;5074657;28;20089;-74
2023/01/13 02:57:36;;;;;;;16.15;5.93;;;8.70;99.90;;;;;;5074527;28;20357;-74
2023/01/13 03:00:04;;;;;;;20.75;6.53;;;8.60;99.90;;;;;;5074472;28;20476;-73
2023/01/13 03:02:30;;;;;;;14.48;5.53;;;8.60;99.90;;;;;;5075371;28;20036;-74
2023/01/13 03:04:58;;;;;;;15.90;6.65;;;8.60;99.90;;;;;;5074506;28;20469;-73
2023/01/13 03:07:48;;;;;;;20.55;6.13;;;8.50;99.90;;;;;;5074689;28;20097;-73
2023/01/13 03:10:38;;;;;;;22.75;8.15;;;8.60;99.90;;;;;;5074487;28;20080;-74
2023/01/13 03:13:27;;;;;;;11.25;4.93;;;8.50;99.90;;;;;;5074455;28;20044;-74
2023/01/13 03:16:07;;;;;;;21.15;6.45;;;8.50;99.90;;;;;;5074928;28;20051;-74
2023/01/13 03:18:58;;;;;;;16.45;5.32;;;8.50;99.90;;;;;;5074422;28;20040;-74
2023/01/13 03:21:30;;;;;;;12.90;5.57;;;8.50;99.90;;;;;;5074575;28;20109;-74
2023/01/13 03:24:07;;;;;;;19.88;4.88;;;8.50;99.90;;;;;;5057046;28;20162;-74
2023/01/13 03:26:42;;;;;;;15.23;5.75;;;8.40;99.90;;;;;;5074240;28;20040;-74
2023/01/13 03:29:16;;;;;;;14.68;5.97;;;8.40;99.90;;;;;;5074173;28;20067;-74
2023/01/13 03:32:09;;;;;;;17.90;6.05;;;8.30;99.90;;;;;;5056717;28;20051;-74
2023/01/13 03:34:46;;;;;;;15.80;6.53;;;8.30;99.90;;;;;;5074882;28;20055;-74
2023/01/13 03:37:15;;;;;;;28.00;9.13;;;8.20;99.90;;;;;;5074125;28;20131;-73
2023/01/13 03:39:46;;;;;;;9.38;4.90;;;8.20;99.90;;;;;;5041956;28;20127;-73
2023/01/13 03:42:19;;;;;;;19.33;6.22;;;8.20;99.90;;;;;;5053193;28;20057;-74
2023/01/13 03:44:47;;;;;;;;;;;8.20;99.90;;;;;;5054444;28;20384;-74
2023/01/13 03:47:31;;;;;;;24.70;5.72;;;8.10;99.90;;;;;;5070355;28;19921;-74
2023/01/13 03:50:10;;;;;;;19.65;6.18;;;8.10;99.90;;;;;;5053903;28;20052;-74
2023/01/13 03:52:42;;;;;;;17.30;5.82;;;8.10;99.90;;;;;;5053620;28;20350;-74
2023/01/13 03:55:13;;;;;;;20.05;7.38;;;8.10;99.90;;;;;;5053987;28;20052;-75
2023/01/13 03:57:48;;;;;;;15.55;6.45;;;8.00;99.90;;;;;;5054444;28;20043;-75
2023/01/13 04:00:14;;;;;;;13.00;6.25;;;8.10;99.90;;;;;;5053824;28;20048;-74
2023/01/13 04:02:56;;;;;;;11.82;4.65;;;8.10;99.90;;;;;;5053819;28;20132;-74
2023/01/13 04:05:22;;;;;;;19.00;6.30;;;8.10;99.90;;;;;;5036801;28;20456;-74
2023/01/13 04:08:25;;;;;;;15.10;6.32;;;8.10;99.90;;;;;;5053710;28;20044;-74
2023/01/13 04:11:09;;;;;;;17.60;6.45;;;8.10;99.90;;;;;;5009136;28;20052;-74
2023/01/13 04:13:38;;;;;;;23.98;7.28;;;8.10;99.90;;;;;;5053229;28;20045;-74
2023/01/13 04:16:09;;;;;;;17.30;5.45;;;8.10;99.90;;;;;;5052648;28;20049;-74
2023/01/13 04:18:37;;;;;;;21.13;6.40;;;8.10;99.90;;;;;;5052532;28;20083;-75
2023/01/13 04:21:04;;;;;;;25.00;6.68;;;8.20;99.90;;;;;;5053404;28;20128;-74
2023/01/13 04:23:30;;;;;;;19.50;6.43;;;8.20;99.90;;;;;;5053593;28;20048;-75
2023/01/13 04:25:56;;;;;;;16.83;7.20;;;8.10;99.90;;;;;;5057649;28;20041;-74
2023/01/13 04:28:22;;;;;;;28.05;7.25;;;8.10;99.90;;;;;;5057923;28;20040;-75
2023/01/13 04:30:48;;;;;;;21.52;6.97;;;8.20;99.90;;;;;;5056890;28;20079;-74
2023/01/13 04:33:15;;;;;;;13.25;5.57;;;8.20;99.90;;;;;;5056458;28;20154;-75
2023/01/13 04:35:41;;;;;;;37.67;8.10;;;8.10;99.90;;;;;;5056520;28;20052;-75
2023/01/13 04:38:10;;;;;;;16.83;5.88;;;8.20;99.90;;;;;;5058025;28;20044;-75
2023/01/13 04:40:37;;;;;;;17.15;6.90;;;8.30;99.90;;;;;;5073313;28;20052;-74
2023/01/13 04:43:03;;;;;;;21.70;7.05;;;8.20;99.90;;;;;;5077213;28;20451;-74
2023/01/13 04:45:29;;;;;;;20.20;6.72;;;8.20;99.90;;;;;;5077429;28;20040;-74
2023/01/13 04:47:55;;;;;;;16.02;5.47;;;8.20;99.90;;;;;;5059512;28;20120;-74
2023/01/13 04:50:21;;;;;;;14.35;5.35;;;8.20;99.90;;;;;;5077114;28;20503;-75
2023/01/13 04:52:48;;;;;;;13.25;5.45;;;8.20;99.90;;;;;;5077875;28;20052;-75
2023/01/13 04:55:15;;;;;;;13.98;5.82;;;8.20;99.90;;;;;;5042858;28;20052;-74
2023/01/13 04:57:41;;;;;;;17.10;5.68;;;8.30;99.90;;;;;;5042556;28;20127;-74
2023/01/13 05:00:09;;;;;;;15.23;6.63;;;8.30;99.90;;;;;;5077798;28;20124;-75
2023/01/13 05:02:34;;;;;;;12.93;5.38;;;8.40;99.90;;;;;;5077303;28;20074;-74
2023/01/13 05:05:00;;;;;;;18.83;6.45;;;8.40;99.90;;;;;;5043344;28;20465;-75
2023/01/13 05:07:26;;;;;;;16.50;5.65;;;8.40;99.90;;;;;;5076590;28;20048;-73
2023/01/13 05:09:51;;;;;;;21.02;6.45;;;8.40;99.90;;;;;;5076909;28;20052;-73
2023/01/13 05:17:46;;;;;;;23.63;7.05;;;8.60;99.90;;;;;;5076546;28;20044;-74
2023/01/13 05:20:12;;;;;;;16.58;7.55;;;8.60;99.90;;;;;;5058878;28;20101;-73
2023/01/13 05:25:26;;;;;;;23.00;6.60;;;8.70;99.90;;;;;;5076438;28;20113;-74
2023/01/13 05:27:56;;;;;;;21.70;7.28;;;8.70;99.90;;;;;;5076553;28;20046;-75
2023/01/13 05:30:25;;;;;;;24.63;7.15;;;8.70;99.90;;;;;;5076411;28;20385;-75
2023/01/13 05:32:51;;;;;;;16.67;4.85;;;8.70;99.90;;;;;;5076185;28;20037;-75
2023/01/13 05:35:17;;;;;;;18.92;9.50;;;8.70;99.90;;;;;;5075398;28;20469;-74
2023/01/13 05:37:44;;;;;;;18.58;5.15;;;8.70;99.90;;;;;;5076288;28;20098;-74
2023/01/13 05:43:18;;;;;;;27.83;9.75;;;8.70;99.90;;;;;;5076740;28;20097;-75
2023/01/13 05:45:51;;;;;;;15.63;5.95;;;8.80;99.90;;;;;;5076322;28;20041;-74
2023/01/13 05:48:19;;;;;;;12.82;5.47;;;8.40;99.90;;;;;;5076038;28;20071;-74
2023/01/13 05:50:45;;;;;;;22.27;6.07;;;8.70;99.90;;;;;;5075917;28;20033;-74
2023/01/13 05:53:11;;;;;;;13.77;5.47;;;8.80;99.90;;;;;;5075933;28;20086;-75
2023/01/13 05:55:41;;;;;;;19.05;7.47;;;8.80;99.90;;;;;;5075165;28;20116;-74
2023/01/13 05:58:08;;;;;;;19.42;5.18;;;8.70;99.90;;;;;;5075801;28;20033;-74
2023/01/13 06:00:34;;;;;;;25.17;5.05;;;8.70;99.90;;;;;;5075775;28;20051;-74
2023/01/13 06:03:00;;;;;;;14.35;5.63;;;8.70;99.90;;;;;;5058420;28;20040;-74
2023/01/13 06:05:25;;;;;;;17.92;6.50;;;8.60;99.90;;;;;;5075651;28;20047;-74
2023/01/13 06:07:56;;;;;;;13.52;5.78;;;8.60;99.90;;;;;;5075755;28;20432;-74
2023/01/13 06:10:21;;;;;;;15.35;5.55;;;8.60;99.90;;;;;;5076291;28;20127;-75
2023/01/13 06:12:47;;;;;;;15.27;6.03;;;8.60;99.90;;;;;;5059801;28;20083;-74
2023/01/13 06:15:13;;;;;;;21.30;6.72;;;8.60;99.90;;;;;;5075900;28;20075;-73
2023/01/13 06:17:38;;;;;;;19.50;6.18;;;8.70;99.90;;;;;;5075636;28;20048;-74
2023/01/13 06:20:07;;;;;;;14.95;4.82;;;8.70;99.90;;;;;;5074958;28;20126;-73
2023/01/13 06:22:38;;;;;;;12.23;4.55;;;8.70;99.90;;;;;;5076132;28;20058;-74
2023/01/13 06:25:10;;;;;;;10.48;4.82;;;8.60;99.90;;;;;;5075661;28;20523;-74
2023/01/13 06:27:36;;;;;;;11.43;5.00;;;8.70;99.90;;;;;;5058096;28;20477;-75
2023/01/13 06:30:03;;;;;;;16.52;4.18;;;8.60;99.90;;;;;;5075224;28;20127;-74
2023/01/13 06:32:37;;;;;;;14.55;4.70;;;8.60;99.90;;;;;;5075967;28;20086;-75
2023/01/13 06:35:08;;;;;;;14.95;4.60;;;8.70;99.90;;;;;;5075141;28;20040;-74
2023/01/13 06:37:34;;;;;;;7.15;3.15;;;8.70;99.90;;;;;;5074506;28;20037;-73
2023/01/13 06:40:02;;;;;;;18.08;4.45;;;8.60;99.90;;;;;;5073867;28;20062;-74
2023/01/13 06:45:16;;;;;;;12.95;4.72;;;8.70;99.90;;;;;;5074950;28;20055;-74
2023/01/13 06:47:42;;;;;;;12.75;4.10;;;8.70;99.90;;;;;;5074981;28;20057;-74
2023/01/13 06:50:09;;;;;;;10.57;3.78;;;8.70;99.90;;;;;;5073856;28;20044;-74
2023/01/13 06:52:35;;;;;;;16.38;3.67;;;8.70;99.90;;;;;;5074747;28;20083;-74
2023/01/13 06:55:00;;;;;;;12.25;4.28;;;8.70;99.90;;;;;;5074737;28;20476;-74
2023/01/13 06:57:26;;;;;;;5.30;3.28;;;8.70;99.90;;;;;;5040819;28;20154;-74
2023/01/13 06:59:52;;;;;;;11.45;3.90;;;8.70;99.90;;;;;;5081205;28;20048;-73
2023/01/13 07:02:17;;;;;;;12.00;3.92;;;8.70;99.90;;;;;;5077702;28;20360;-75
2023/01/13 07:04:44;;;;;;;7.63;2.83;;;8.70;99.90;;;;;;5074668;28;20037;-75
2023/01/13 07:07:11;;;;;;;11.52;3.53;;;8.60;99.90;;;;;;5057167;28;20473;-74
2023/01/13 07:09:36;;;;;;;9.18;4.13;;;8.60;99.90;;;;;;5074803;28;20045;-74
2023/01/13 07:12:02;;;;;;;7.93;3.05;;;8.50;99.90;;;;;;5056572;28;20045;-74
2023/01/13 07:17:12;;;;;;;8.57;3.53;;;8.50;99.90;;;;;;5059561;28;20059;-74
2023/01/13 07:19:38;;;;;;;18.40;4.35;;;8.40;99.90;;;;;;5075087;28;20037;-74
2023/01/13 07:22:04;;;;;;;9.57;3.95;;;8.40;99.90;;;;;;5075257;28;20460;-74
2023/01/13 07:24:29;;;;;;;15.35;4.50;;;8.40;99.90;;;;;;5074344;28;20036;-74
2023/01/13 07:26:55;;;;;;;6.90;3.72;;;8.40;99.90;;;;;;5056642;28;20098;-73
2023/01/13 07:29:21;;;;;;;17.17;4.35;;;8.30;99.90;;;;;;5074921;28;20033;-74
2023/01/13 07:31:47;;;;;;;10.50;4.07;;;8.20;99.90;;;;;;5074194;28;20076;-72
2023/01/13 07:34:13;;;;;;;12.18;3.85;;;8.20;99.90;;;;;;5074064;28;20127;-73
2023/01/13 07:36:38;;;;;;;7.03;3.67;;;8.20;99.90;;;;;;5074081;28;20076;-72
2023/01/13 07:39:04;;;;;;;8.25;3.63;;;8.10;99.90;;;;;;5074195;28;20049;-73
2023/01/13 07:44:14;;;;;;;9.40;4.32;;;8.00;99.90;;;;;;5075086;28;20097;-73
2023/01/13 07:46:40;;;;;;;7.82;3.53;;;8.00;99.90;;;;;;5074107;28;20033;-72
2023/01/13 07:49:07;;;;;;;6.47;3.42;;;8.00;99.90;;;;;;5073737;28;20052;-72
2023/01/13 07:51:36;;;;;;;11.32;3.85;;;8.00;99.90;;;;;;5073812;28;20133;-72
2023/01/13 07:54:02;;;;;;;6.43;3.63;;;8.00;99.90;;;;;;5073730;28;20040;-72
2023/01/13 07:56:28;;;;;;;8.82;3.65;;;7.90;99.90;;;;;;5056120;28;20353;-72
2023/01/13 07:58:53;;;;;;;14.05;4.72;;;8.00;99.90;;;;;;5073720;28;20050;-72
2023/01/13 08:01:19;;;;;;;12.93;4.10;;;7.90;99.90;;;;;;5074004;28;20091;-72
2023/01/13 08:03:45;;;;;;;16.55;5.53;;;8.00;99.90;;;;;;5073763;28;20033;-71
2023/01/13 08:06:12;;;;;;;11.63;4.57;;;7.90;99.90;;;;;;5073767;28;20036;-72
2023/01/13 08:08:38;;;;;;;17.13;5.93;;;7.90;99.90;;;;;;5073769;28;20044;-72
2023/01/13 08:11:06;;;;;;;18.88;6.28;;;8.00;99.90;;;;;;5073897;28;20043;-73
2023/01/13 08:13:32;;;;;;;18.42;4.75;;;8.00;99.90;;;;;;5072697;28;20053;-73
2023/01/13 08:16:00;;;;;;;11.77;5.93;;;8.00;99.90;;;;;;5055903;28;20051;-73
2023/01/13 08:18:26;;;;;;;11.45;5.68;;;8.00;99.90;;;;;;5073504;28;20048;-73
2023/01/13 08:20:52;;;;;;;14.38;3.83;;;8.00;99.90;;;;;;5074112;28;20514;-72
2023/01/13 08:23:21;;;;;;;9.98;4.10;;;8.00;99.90;;;;;;5073909;28;20080;-72
2023/01/13 08:25:48;;;;;;;19.70;5.72;;;8.00;99.90;;;;;;5055597;28;20041;-72
2023/01/13 08:28:15;;;;;;;21.55;4.47;;;8.00;99.90;;;;;;5055549;28;20047;-72
2023/01/13 08:30:40;;;;;;;18.60;5.63;;;8.10;99.90;;;;;;5074347;28;20361;-73
2023/01/13 08:33:09;;;;;;;17.10;4.45;;;8.10;99.90;;;;;;5073308;28;20151;-73
2023/01/13 08:35:36;;;;;;;10.73;4.35;;;8.10;99.90;;;;;;5055798;28;20040;-73
2023/01/13 08:38:02;;;;;;;11.30;4.82;;;8.20;99.90;;;;;;5073455;28;20123;-72
2023/01/13 08:40:27;;;;;;;14.70;5.15;;;8.20;99.90;;;;;;5073255;28;20120;-73
2023/01/13 08:42:55;;;;;;;9.68;4.55;;;8.20;99.90;;;;;;5074120;28;20191;-73
2023/01/13 08:45:21;;;;;;;16.48;4.60;;;8.20;99.90;;;;;;5074072;28;20132;-74
2023/01/13 08:47:46;;;;;;;9.73;4.93;;;8.20;99.90;;;;;;5073754;28;20037;-73
2023/01/13 08:50:13;;;;;;;10.02;5.05;;;8.30;99.90;;;;;;5073764;28;20056;-72
2023/01/13 08:52:39;;;;;;;15.40;5.50;;;8.30;99.90;;;;;;5073271;28;20052;-73
2023/01/13 08:55:05;;;;;;;9.52;4.50;;;8.30;99.90;;;;;;5073711;28;20438;-73
2023/01/13 08:57:31;;;;;;;18.35;5.50;;;8.30;99.90;;;;;;5055581;28;20055;-74
2023/01/13 08:59:56;;;;;;;23.13;3.95;;;8.30;99.90;;;;;;5073125;28;20041;-74
2023/01/13 09:02:23;;;;;;;18.23;5.03;;;8.40;99.90;;;;;;5073105;28;20475;-73
2023/01/13 09:04:50;;;;;;;21.42;4.70;;;8.40;99.90;;;;;;5073165;28;20083;-73
2023/01/13 09:07:16;;;;;;;10.30;3.88;;;8.40;99.90;;;;;;5073230;28;20087;-73
2023/01/13 09:09:42;;;;;;;11.68;5.72;;;8.40;99.90;;;;;;5074007;28;20084;-73
2023/01/13 09:14:55;;;;;;;12.55;5.40;;;8.30;99.90;;;;;;5077228;28;20147;-73
2023/01/13 09:17:22;;;;;;;18.13;4.55;;;8.30;99.90;;;;;;5078727;28;20041;-73
2023/01/13 09:19:48;;;;;;;10.20;4.60;;;8.20;99.90;;;;;;5076992;28;20045;-73
2023/01/13 09:22:16;;;;;;;12.57;4.82;;;8.20;99.90;;;;;;5076357;28;20045;-72
2023/01/13 09:24:42;;;;;;;10.93;4.88;;;8.20;99.90;;;;;;5058385;28;20504;-72
2023/01/13 09:27:12;;;;;;;13.27;5.53;;;8.20;99.90;;;;;;5075545;28;20040;-70
2023/01/13 09:29:38;;;;;;;16.98;6.75;;;8.20;99.90;;;;;;5076449;28;20040;-70
2023/01/13 09:32:05;;;;;;;15.93;4.97;;;8.20;99.90;;;;;;5076317;28;20106;-69
2023/01/13 09:37:15;;;;;;;9.00;5.00;;;8.10;99.90;;;;;;5076640;28;20506;-70
2023/01/13 09:39:41;;;;;;;17.95;5.93;;;8.00;99.90;;;;;;5075968;28;20060;-70
2023/01/13 09:45:14;;;;;;;14.15;6.68;;;8.00;99.90;;;;;;5076557;28;20051;-70
2023/01/13 09:47:56;;;;;;;16.25;6.18;;;8.00;99.90;;;;;;5076025;28;20495;-70
2023/01/13 09:51:03;;;;;;;23.80;5.75;;;7.90;99.90;;;;;;5076554;28;20052;-70
2023/01/13 09:53:37;;;;;;;17.75;6.35;;;7.90;99.90;;;;;;5076847;28;20391;-69
2023/01/13 09:56:03;;;;;;;24.02;5.95;;;7.90;99.90;;;;;;5077117;28;20354;-70
2023/01/13 09:58:29;;;;;;;17.00;5.22;;;7.80;99.90;;;;;;5074757;28;20135;-70
2023/01/13 10:00:54;;;;;;;17.80;5.57;;;7.90;99.90;;;;;;5058399;28;20036;-70
2023/01/13 10:03:25;;;;;;;15.00;6.85;;;7.90;99.90;;;;;;5077098;28;20066;-71
2023/01/13 10:06:24;;;;;;;16.13;5.38;;;7.90;99.90;;;;;;5075939;28;20036;-71
2023/01/13 10:08:50;;;;;;;22.75;5.28;;;7.90;99.90;;;;;;5061505;28;20139;-71
2023/01/13 10:14:18;;;;;;;26.08;5.97;;;8.00;99.90;;;;;;5060469;28;20087;-71
2023/01/13 10:17:06;;;;;;;14.15;5.97;;;8.00;99.90;;;;;;5075535;28;20090;-70
2023/01/13 10:19:49;;;;;;;18.15;5.88;;;8.00;99.90;;;;;;5075484;28;20131;-70
2023/01/13 10:22:37;;;;;;;13.90;5.82;;;8.00;99.90;;;;;;5071286;28;20139;-70
2023/01/13 10:25:30;;;;;;;21.73;6.85;;;7.90;99.90;;;;;;5057311;28;20056;-70
2023/01/13 10:28:06;;;;;;;17.98;5.30;;;7.90;99.90;;;;;;5075458;28;20044;-71
2023/01/13 10:30:35;;;;;;;9.85;4.25;;;7.90;99.90;;;;;;5075349;28;20049;-71
2023/01/13 10:33:10;;;;;;;11.88;3.92;;;7.90;99.90;;;;;;5075043;28;20036;-71
2023/01/13 10:35:54;;;;;;;10.45;3.95;;;7.90;99.90;;;;;;5075285;28;20048;-70
2023/01/13 10:38:26;;;;;;;10.85;3.40;;;7.90;99.90;;;;;;5074977;28;20048;-70
2023/01/13 10:40:59;;;;;;;11.07;4.47;;;8.00;99.90;;;;;;5074579;28;20098;-70
2023/01/13 10:43:26;;;;;;;12.55;4.82;;;8.00;99.90;;;;;;5075048;28;20040;-70
2023/01/13 10:46:04;;;;;;;13.95;4.10;;;8.00;99.90;;;;;;5074968;28;20040;-71
2023/01/13 10:48:41;;;;;;;15.65;4.35;;;8.00;99.90;;;;;;5075552;28;20047;-70
2023/01/13 10:51:13;;;;;;;15.98;4.47;;;8.00;99.90;;;;;;5075152;28;20119;-69
2023/01/13 10:53:58;;;;;;;15.82;5.38;;;8.10;99.90;;;;;;5076093;28;20070;-70
2023/01/13 10:56:27;;;;;;;8.45;4.10;;;8.10;99.90;;;;;;5059256;28;20417;-70
2023/01/13 10:59:21;;;;;;;13.93;4.63;;;8.10;99.90;;;;;;5074605;28;20044;-70
2023/01/13 11:02:14;;;;;;;10.25;3.78;;;8.10;99.90;;;;;;5056793;28;20037;-68
2023/01/13 11:04:44;;;;;;;10.50;5.10;;;8.10;99.90;;;;;;5074565;28;20512;-70
2023/01/13 11:07:28;;;;;;;8.85;4.40;;;8.10;99.90;;;;;;5057597;28;20044;-70
2023/01/13 11:10:26;;;;;;;21.23;6.40;;;8.10;99.90;;;;;;5074331;28;20127;-70
2023/01/13 11:13:00;;;;;;;17.55;5.70;;;8.20;99.90;;;;;;5056769;28;20119;-71
2023/01/13 11:15:38;;;;;;;13.38;4.40;;;8.20;99.90;;;;;;5075461;28;20089;-67
2023/01/13 11:18:28;;;;;;;10.15;4.10;;;8.30;99.90;;;;;;5075939;28;20119;-70
2023/01/13 11:20:57;;;;;;;13.10;4.35;;;8.30;99.90;;;;;;5033015;28;20056;-71
2023/01/13 11:23:47;;;;;;;15.35;5.68;;;8.40;99.90;;;;;;5074092;28;20049;-71
2023/01/13 11:26:37;;;;;;;12.68;3.80;;;8.40;99.90;;;;;;5074358;28;20068;-70
2023/01/13 11:29:40;;;;;;;7.90;4.15;;;8.30;99.90;;;;;;5057364;28;20083;-70
2023/01/13 11:32:20;;;;;;;16.92;4.13;;;8.30;99.90;;;;;;5074484;28;20040;-70
2023/01/13 11:35:11;;;;;;;13.38;5.93;;;8.30;99.90;;;;;;5056244;28;20044;-70
2023/01/13 11:37:43;;;;;;;24.38;5.40;;;8.30;99.90;;;;;;5062799;28;20055;-70
2023/01/13 11:40:15;;;;;;;10.82;3.45;;;8.30;99.90;;;;;;5074189;28;20049;-70
2023/01/13 11:42:49;;;;;;;10.95;4.05;;;8.40;99.90;;;;;;5074364;28;20045;-71
2023/01/13 11:45:18;;;;;;;11.60;3.33;;;8.30;99.90;;;;;;5074396;28;20119;-70
2023/01/13 11:47:50;;;;;;;12.68;3.90;;;8.40;99.90;;;;;;5074471;28;20040;-70
2023/01/13 11:50:25;;;;;;;7.53;3.28;;;8.40;99.90;;;;;;5074447;28;20044;-71
2023/01/13 11:53:04;;;;;;;11.48;3.70;;;8.50;99.90;;;;;;5073636;28;20040;-71
2023/01/13 11:56:00;;;;;;;13.13;4.38;;;8.50;99.90;;;;;;5074502;28;20116;-71
2023/01/13 11:58:52;;;;;;;8.07;3.10;;;8.50;99.90;;;;;;5074559;28;20041;-71
2023/01/13 12:01:38;;;;;;;9.88;3.95;;;8.60;99.90;;;;;;5074207;28;20041;-71
2023/01/13 12:04:25;;;;;;;9.15;3.00;;;8.60;99.90;;;;;;5055882;28;20073;-70
2023/01/13 12:07:12;;;;;;;6.82;2.63;;;8.70;99.90;;;;;;5073665;28;20040;-71
2023/01/13 12:09:58;;;;;;;12.65;4.70;;;8.60;99.90;;;;;;5056250;28;20160;-70
2023/01/13 12:12:36;;;;;;;9.45;4.30;;;8.60;99.90;;;;;;5074230;28;20048;-71
2023/01/13 12:15:30;;;;;;;8.77;2.83;;;8.60;99.90;;;;;;5056684;28;20127;-71
2023/01/13 12:18:19;;;;;;;10.25;3.85;;;8.60;99.90;;;;;;5073237;28;20376;-72
2023/01/13 12:21:07;;;;;;;6.40;3.00;;;8.60;99.90;;;;;;5073499;28;20101;-70
2023/01/13 12:24:04;;;;;;;10.77;3.45;;;8.60;99.90;;;;;;5073572;28;20040;-72
2023/01/13 12:26:34;;;;;;;11.07;3.30;;;8.70;99.90;;;;;;5073479;28;20123;-72
2023/01/13 12:29:18;;;;;;;6.40;2.80;;;8.70;99.90;;;;;;5073317;28;20040;-71
2023/01/13 12:31:48;;;;;;;6.47;3.17;;;8.70;99.90;;;;;;5073658;28;20133;-70
2023/01/13 12:34:30;;;;;;;7.25;2.80;;;8.80;99.90;;;;;;5056083;28;20041;-69
2023/01/13 12:37:21;;;;;;;10.07;4.75;;;8.80;99.90;;;;;;5039004;28;20473;-71
2023/01/13 12:40:00;;;;;;;9.32;3.35;;;8.80;99.90;;;;;;5073572;28;20159;-72
2023/01/13 12:45:30;;;;;;;7.45;2.92;;;8.80;99.90;;;;;;5058866;28;20400;-71
2023/01/13 12:47:57;;;;;;;12.27;4.57;;;8.90;99.90;;;;;;5077059;28;20109;-70
2023/01/13 12:50:23;;;;;;;6.05;3.40;;;8.90;99.90;;;;;;5076958;28;20040;-72
2023/01/13 12:52:54;;;;;;;9.13;3.47;;;8.90;99.90;;;;;;5077367;28;20041;-74
2023/01/13 12:55:29;;;;;;;8.00;2.45;;;8.90;99.90;;;;;;5076924;28;20131;-72
2023/01/13 12:57:58;;;;;;;12.90;3.05;;;9.00;99.90;;;;;;5077344;28;20076;-72
2023/01/13 13:00:31;;;;;;;10.75;3.25;;;9.00;99.90;;;;;;5077646;28;20334;-73
2023/01/13 13:03:12;;;;;;;10.83;3.27;;;9.00;99.90;;;;;;5076777;28;20037;-72
2023/01/13 13:05:38;;;;;;;8.73;2.80;;;9.10;99.90;;;;;;5077629;28;20283;-73
2023/01/13 13:08:21;;;;;;;4.57;2.80;;;9.10;99.90;;;;;;5076951;28;20107;-73
2023/01/13 13:14:03;;;;;;;;;;;9.10;99.90;;;;;;5077962;28;20098;-74
2023/01/13 13:16:29;;;;;;;6.28;2.28;;;9.10;99.90;;;;;;5076607;28;19967;-73
2023/01/13 13:19:14;;;;;;;4.03;2.78;;;9.00;99.90;;;;;;5077333;28;20084;-72
2023/01/13 13:22:06;;;;;;;8.60;2.80;;;9.10;99.90;;;;;;5062184;28;20102;-76
2023/01/13 13:24:32;;;;;;;5.57;2.08;;;9.10;99.90;;;;;;5076734;28;20044;-72
2023/01/13 13:27:20;;;;;;;11.45;3.20;;;9.00;99.90;;;;;;5076140;28;20044;-73
2023/01/13 13:29:55;;;;;;;7.35;4.95;;;9.00;99.90;;;;;;5076267;28;20462;-73
2023/01/13 13:33:02;;;;;;;7.75;2.40;;;9.00;99.90;;;;;;5076835;28;20041;-73
2023/01/13 13:35:27;;;;;;;5.55;2.28;;;9.00;99.90;;;;;;5011135;28;20059;-72
2023/01/13 13:47:00;;;;;;;5.38;2.63;;;9.10;99.90;;;;;;5076996;28;20090;-76
2023/01/13 13:49:45;;;;;;;8.07;3.00;;;9.20;99.90;;;;;;5058672;28;20044;-76
2023/01/13 13:52:14;;;;;;;5.63;2.58;;;9.20;99.90;;;;;;5076091;28;20048;-75
2023/01/13 13:54:43;;;;;;;5.60;1.95;;;9.20;99.90;;;;;;5075753;28;20037;-76
2023/01/13 13:57:39;;;;;;;6.22;2.13;;;9.20;99.90;;;;;;5075267;28;20040;-75
2023/01/13 14:00:30;;;;;;;9.45;2.83;;;9.20;99.90;;;;;;5076435;28;20343;-75
2023/01/13 14:03:00;;;;;;;6.93;3.97;;;9.70;99.90;;;;;;5058030;28;20483;-75
2023/01/13 14:05:29;;;;;;;6.93;2.58;;;9.30;99.90;;;;;;5057989;28;20040;-76
2023/01/13 14:08:11;;;;;;;5.13;2.00;;;9.30;99.90;;;;;;5075747;28;20047;-76
2023/01/13 14:10:39;;;;;;;7.20;2.42;;;9.40;99.90;;;;;;5076057;28;20380;-77
2023/01/13 14:13:21;;;;;;;4.63;1.88;;;9.30;99.90;;;;;;5075601;28;20073;-76